Time;durP1;ratioP1;P1;durP2;ratioP2;P2;SDS_P1;SDS_P2;PMS_P1;PMS_P2;Temp;Humidity;BMP_temperature;BMP_pressure;BME280_temperature;BME280_humidity;BME280_pressure;Samples;Min_cycle;Max_cycle;Signal;HPM_P1;HPM_P2
2022/06/17 00:01:57;;;;;;;17.33;14.50;;;;;;;14.36;100.00;102436.44;4906042;29;20059;-79
2022/06/17 00:04:25;;;;;;;17.70;13.98;;;;;;;14.33;100.00;102421.38;4893175;29;20557;-80
2022/06/17 00:07:01;;;;;;;16.52;14.57;;;;;;;14.36;100.00;102436.44;4890547;29;20494;-80
2022/06/17 00:09:32;;;;;;;16.65;14.60;;;;;;;14.34;100.00;102427.56;4901886;29;20178;-80
2022/06/17 00:12:00;;;;;;;;;;;;;;;14.32;100.00;102424.00;4906583;29;20036;-77
2022/06/17 00:14:33;;;;;;;15.02;13.52;;;;;;;14.31;100.00;102422.22;4853171;29;20125;-79
2022/06/17 00:17:07;;;;;;;16.20;14.20;;;;;;;14.30;100.00;102433.72;4891376;29;20510;-79
2022/06/17 00:19:35;;;;;;;14.60;12.80;;;;;;;14.29;100.00;102431.91;4894435;29;20313;-78
2022/06/17 00:22:04;;;;;;;18.23;14.55;;;;;;;14.29;100.00;102443.44;4905554;29;20513;-78
2022/06/17 00:24:33;;;;;;;17.27;13.63;;;;;;;14.28;100.00;102446.94;4903079;29;20051;-80
2022/06/17 00:27:02;;;;;;;14.93;13.07;;;;;;;14.28;100.00;102451.38;4874982;29;20259;-79
2022/06/17 00:29:30;;;;;;;16.05;14.23;;;;;;;14.27;100.00;102447.81;4868433;29;20670;-80
2022/06/17 00:31:59;;;;;;;15.05;13.10;;;;;;;14.25;100.00;102441.59;4919152;29;20063;-79
2022/06/17 00:34:27;;;;;;;15.02;13.32;;;;;;;14.23;100.00;102432.72;4901724;29;20036;-80
2022/06/17 00:36:59;;;;;;;14.73;13.25;;;;;;;14.20;100.00;102435.34;4866507;29;20055;-80
2022/06/17 00:39:31;;;;;;;15.38;13.82;;;;;;;14.15;100.00;102434.41;4886216;29;20036;-80
2022/06/17 00:42:05;;;;;;;15.80;13.68;;;;;;;14.10;100.00;102430.78;4907234;29;20036;-80
2022/06/17 00:44:46;;;;;;;13.80;12.40;;;;;;;14.03;100.00;102428.06;4853307;29;20285;-80
2022/06/17 00:47:37;;;;;;;14.88;12.10;;;;;;;13.99;100.00;102428.00;4907004;29;20052;-78
2022/06/17 00:50:15;;;;;;;14.40;12.90;;;;;;;13.97;100.00;102422.66;4909421;29;20048;-79
2022/06/17 00:52:46;;;;;;;14.57;13.13;;;;;;;13.97;100.00;102435.94;4904085;29;20040;-79
2022/06/17 00:56:03;;;;;;;16.50;13.70;;;;;;;13.94;100.00;102430.56;4923443;29;20051;-79
2022/06/17 00:59:03;;;;;;;16.80;13.40;;;;;;;13.91;100.00;102429.63;4906146;29;20158;-78
2022/06/17 01:01:58;;;;;;;15.07;13.13;;;;;;;13.89;100.00;102437.56;4876010;29;20036;-78
2022/06/17 01:04:38;;;;;;;14.52;12.60;;;;;;;13.89;100.00;102426.94;4880992;29;20045;-78
2022/06/17 01:07:17;;;;;;;14.00;12.05;;;;;;;13.87;100.00;102426.03;4885602;29;20051;-79
2022/06/17 01:10:01;;;;;;;15.40;12.77;;;;;;;13.87;100.00;102428.69;4893801;29;20032;-79
2022/06/17 01:12:39;;;;;;;14.40;13.02;;;;;;;13.87;100.00;102430.47;4905832;29;20285;-78
2022/06/17 01:15:09;;;;;;;17.13;14.07;;;;;;;13.86;100.00;102432.22;4865698;29;20055;-78
2022/06/17 01:17:40;;;;;;;16.10;13.63;;;;;;;13.88;100.00;102432.25;4889447;29;20278;-79
2022/06/17 01:20:12;;;;;;;17.80;15.95;;;;;;;13.88;100.00;102426.94;4891423;29;20043;-79
2022/06/17 01:22:45;;;;;;;15.93;14.23;;;;;;;13.88;100.00;102430.50;4890069;29;20179;-78
2022/06/17 01:25:48;;;;;;;19.08;15.70;;;;;;;13.86;100.00;102428.69;4919067;29;20383;-79
2022/06/17 01:28:17;;;;;;;17.27;14.63;;;;;;;13.85;100.00;102433.06;4903866;29;20061;-78
2022/06/17 01:30:59;;;;;;;17.80;15.95;;;;;;;13.83;100.00;102425.09;4877354;29;20110;-78
2022/06/17 01:33:36;;;;;;;17.67;15.85;;;;;;;13.84;100.00;102423.38;4872869;29;20282;-78
2022/06/17 01:36:17;;;;;;;18.00;15.15;;;;;;;13.83;100.00;102430.41;4909582;29;20067;-78
2022/06/17 01:38:52;;;;;;;20.10;15.60;;;;;;;13.81;100.00;102432.13;4899928;29;20037;-79
2022/06/17 01:41:25;;;;;;;18.27;15.68;;;;;;;13.81;100.00;102428.59;4889210;29;20126;-78
2022/06/17 01:44:11;;;;;;;17.70;14.68;;;;;;;13.80;100.00;102424.19;4892620;29;20051;-79
2022/06/17 01:46:43;;;;;;;17.33;15.43;;;;;;;13.81;100.00;102431.25;4872084;29;20449;-78
2022/06/17 01:49:19;;;;;;;18.60;15.82;;;;;;;13.80;100.00;102426.84;4905894;29;20044;-78
2022/06/17 01:51:54;;;;;;;17.48;15.65;;;;;;;13.81;100.00;102423.31;4892326;29;20052;-78
2022/06/17 01:54:32;;;;;;;17.50;15.77;;;;;;;13.81;100.00;102423.31;4879646;29;20226;-78
2022/06/17 01:57:04;;;;;;;16.65;14.98;;;;;;;13.81;100.00;102425.97;4907991;29;20398;-78
2022/06/17 01:59:45;;;;;;;18.83;14.38;;;;;;;13.81;100.00;102415.34;4905296;29;20048;-78
2022/06/17 02:02:15;;;;;;;16.20;14.52;;;;;;;13.83;100.00;102418.91;4885459;29;20522;-78
2022/06/17 02:04:51;;;;;;;16.08;13.77;;;;;;;13.85;100.00;102427.78;4885335;29;20051;-77
2022/06/17 02:07:55;;;;;;;17.02;14.55;;;;;;;13.86;100.00;102421.63;4903987;29;20545;-78
2022/06/17 02:10:29;;;;;;;16.25;14.57;;;;;;;13.87;100.00;102419.84;4878885;29;20621;-80
2022/06/17 02:13:00;;;;;;;19.25;16.50;;;;;;;13.87;100.00;102415.44;4920851;29;20067;-79
2022/06/17 02:15:34;;;;;;;19.88;16.10;;;;;;;13.87;100.00;102417.22;4893870;29;20407;-78
2022/06/17 02:18:19;;;;;;;17.65;14.93;;;;;;;13.87;100.00;102410.13;4868080;29;20067;-80
2022/06/17 02:21:10;;;;;;;16.05;14.25;;;;;;;13.85;100.00;102406.56;4893170;29;20517;-80
2022/06/17 02:23:39;;;;;;;17.35;13.70;;;;;;;13.86;100.00;102413.69;4917630;29;20067;-80
2022/06/17 02:26:08;;;;;;;16.58;14.82;;;;;;;13.88;100.00;102425.19;4914417;29;20048;-80
2022/06/17 02:28:38;;;;;;;16.75;13.82;;;;;;;13.86;100.00;102416.31;4887696;29;20056;-79
2022/06/17 02:31:08;;;;;;;17.10;14.55;;;;;;;13.84;100.00;102416.31;4907961;29;20052;-80
2022/06/17 02:33:38;;;;;;;;;;;;;;;13.82;100.00;102411.84;4906019;29;20147;-80
2022/06/17 02:36:16;;;;;;;16.73;14.93;;;;;;;13.78;100.00;102415.31;4857806;29;19930;-80
2022/06/17 02:38:45;;;;;;;15.85;14.05;;;;;;;13.75;100.00;102413.50;4899961;29;20048;-80
2022/06/17 02:41:19;;;;;;;15.38;13.80;;;;;;;13.73;100.00;102414.38;4891119;29;20039;-80
2022/06/17 02:44:01;;;;;;;16.23;13.07;;;;;;;13.69;100.00;102407.25;4893018;29;20048;-79
2022/06/17 02:46:35;;;;;;;14.02;12.63;;;;;;;13.68;100.00;102413.41;4905349;29;20079;-79
2022/06/17 02:49:12;;;;;;;15.25;13.30;;;;;;;13.67;100.00;102424.84;4907998;29;20059;-80
2022/06/17 02:51:42;;;;;;;17.15;12.15;;;;;;;13.67;100.00;102416.91;4871402;29;20059;-78
2022/06/17 02:54:16;;;;;;;13.85;12.48;;;;;;;13.64;100.00;102413.34;4906528;29;20533;-81
2022/06/17 02:56:50;;;;;;;13.68;12.23;;;;;;;13.64;100.00;102412.44;4882973;29;20051;-80
2022/06/17 02:59:36;;;;;;;14.20;12.45;;;;;;;13.64;100.00;102413.34;4903676;29;20522;-80
2022/06/17 03:02:14;;;;;;;14.60;13.18;;;;;;;13.62;100.00;102423.03;4906092;29;20051;-79
2022/06/17 03:04:45;;;;;;;13.80;11.30;;;;;;;13.61;100.00;102407.09;4905461;29;20036;-79
2022/06/17 03:07:20;;;;;;;15.68;12.77;;;;;;;13.61;100.00;102409.75;4869358;29;20472;-80
2022/06/17 03:09:53;;;;;;;13.73;12.27;;;;;;;13.60;100.00;102405.34;4904880;29;20050;-79
2022/06/17 03:12:29;;;;;;;16.60;12.25;;;;;;;13.59;100.00;102396.50;4878185;29;20055;-80
2022/06/17 03:15:00;;;;;;;14.75;13.25;;;;;;;13.59;100.00;102395.59;4906890;29;20051;-79
2022/06/17 03:17:30;;;;;;;18.98;13.02;;;;;;;13.58;100.00;102401.78;4910234;29;20265;-79
2022/06/17 03:20:02;;;;;;;14.00;10.90;;;;;;;13.57;100.00;102397.31;4910387;29;20580;-79
2022/06/17 03:22:31;;;;;;;11.93;10.73;;;;;;;13.58;100.00;102405.31;4870852;29;24938;-80
2022/06/17 03:25:09;;;;;;;13.98;11.82;;;;;;;13.58;100.00;102402.66;4907063;29;20048;-79
2022/06/17 03:27:46;;;;;;;15.57;11.57;;;;;;;13.60;100.00;102397.38;4881200;29;20182;-79
2022/06/17 03:30:32;;;;;;;12.65;11.43;;;;;;;13.60;100.00;102390.31;4888504;29;20036;-80
2022/06/17 03:33:06;;;;;;;;;;;;;;;13.59;100.00;102396.50;4894299;29;20043;-80
2022/06/17 03:35:37;;;;;;;13.00;9.45;;;;;;;13.59;100.00;102399.16;4901085;29;20140;-80
2022/06/17 03:38:26;;;;;;;;;;;;;;;13.61;100.00;102405.38;4853614;29;20440;-79
2022/06/17 03:40:59;;;;;;;11.82;8.80;;;;;;;13.65;100.00;102399.25;4905294;29;19931;-79
2022/06/17 03:43:34;;;;;;;20.02;12.75;;;;;;;13.71;100.00;102403.75;4875708;29;20238;-79
2022/06/17 03:46:06;;;;;;;12.65;11.35;;;;;;;13.77;100.00;102417.06;4908108;29;20051;-79
2022/06/17 03:48:51;;;;;;;14.85;9.98;;;;;;;13.83;100.00;102421.56;4905237;29;20445;-79
2022/06/17 03:51:23;;;;;;;14.02;9.82;;;;;;;13.88;100.00;102414.59;4904808;29;20060;-79
2022/06/17 03:53:53;;;;;;;13.82;9.35;;;;;;;13.93;100.00;102418.19;4875968;29;20048;-79
2022/06/17 03:56:30;;;;;;;12.35;8.50;;;;;;;13.98;100.00;102415.59;4888597;29;20082;-79
2022/06/17 03:59:03;;;;;;;10.70;9.52;;;;;;;14.02;100.00;102412.13;4899394;29;20055;-79
2022/06/17 04:01:46;;;;;;;12.43;9.80;;;;;;;14.08;100.00;102408.66;4903892;29;20071;-79
2022/06/17 04:04:21;;;;;;;9.55;7.93;;;;;;;14.10;100.00;102413.13;4905592;29;20067;-79
2022/06/17 04:06:54;;;;;;;13.15;9.05;;;;;;;14.14;100.00;102414.03;4891811;29;20391;-79
2022/06/17 04:09:30;;;;;;;12.43;8.77;;;;;;;14.17;100.00;102408.78;4854592;29;20048;-79
2022/06/17 04:12:12;;;;;;;12.38;8.32;;;;;;;14.20;100.00;102411.50;4907944;29;20048;-79
2022/06/17 04:15:00;;;;;;;13.05;8.77;;;;;;;14.24;100.00;102403.59;4890215;29;20044;-79
2022/06/17 04:17:35;;;;;;;9.60;8.60;;;;;;;14.29;100.00;102390.41;4897931;29;20063;-79
2022/06/17 04:20:28;;;;;;;9.82;8.77;;;;;;;14.37;100.00;102401.09;4906456;29;20375;-79
2022/06/17 04:23:04;;;;;;;9.68;8.45;;;;;;;14.45;100.00;102401.19;4894922;29;20048;-79
2022/06/17 04:26:14;;;;;;;;;;;;;;;14.55;100.00;102398.66;4875992;29;20052;-81
2022/06/17 04:28:49;;;;;;;12.15;8.70;;;;;;;14.64;100.00;102395.25;4893874;29;19923;-80
2022/06/17 04:31:25;;;;;;;10.13;8.52;;;;;;;14.75;100.00;102406.00;4904803;29;20044;-80
2022/06/17 04:34:20;;;;;;;10.05;8.55;;;;;;;14.82;100.00;102410.50;4899547;29;20052;-80
2022/06/17 04:37:12;;;;;;;12.18;8.20;;;;;;;14.93;100.00;102413.25;4898912;29;20067;-80
2022/06/17 04:39:57;;;;;;;11.73;7.72;;;;;;;15.02;100.00;102408.03;4902910;29;20406;-79
2022/06/17 04:42:47;;;;;;;9.90;7.75;;;;;;;15.09;100.00;102417.84;4906195;29;20036;-80
2022/06/17 04:45:24;;;;;;;11.93;8.57;;;;;;;15.11;100.00;102413.44;4887868;29;20055;-81
2022/06/17 04:48:00;;;;;;;12.18;8.23;;;;;;;15.13;100.00;102405.47;4896893;29;20040;-81
2022/06/17 04:50:32;;;;;;;11.38;8.20;;;;;;;15.14;100.00;102397.53;4878549;29;20257;-80
2022/06/17 04:53:02;;;;;;;10.15;7.53;;;;;;;15.16;100.00;102417.03;4897107;29;20496;-82
2022/06/17 04:55:50;;;;;;;11.38;8.25;;;;;;;15.20;100.00;102407.31;4874885;29;20037;-80
2022/06/17 04:58:31;;;;;;;11.93;8.57;;;;;;;15.25;100.00;102404.69;4894704;29;20290;-80
2022/06/17 05:01:03;;;;;;;9.45;8.32;;;;;;;15.30;100.00;102410.94;4912384;29;20490;-79
2022/06/17 05:03:57;;;;;;;9.93;7.80;;;;;;;15.35;100.00;102412.75;4909907;29;20060;-78
2022/06/17 05:06:33;;;;;;;11.88;8.68;;;;;;;15.40;100.00;102410.13;4897786;29;20036;-80
2022/06/17 05:09:42;;;;;;;11.27;8.70;;;;;;;15.44;100.00;102416.34;4909846;29;20056;-81
2022/06/17 05:12:24;;;;;;;9.77;8.77;;;;;;;15.46;100.00;102417.25;4871120;29;20048;-79
2022/06/17 05:15:18;;;;;;;10.07;8.25;;;;;;;15.46;100.00;102404.84;4908863;29;20342;-79
2022/06/17 05:17:48;;;;;;;11.73;8.95;;;;;;;15.48;100.00;102408.44;4891880;29;20052;-79
2022/06/17 05:20:19;;;;;;;11.07;9.25;;;;;;;15.48;100.00;102411.09;4888375;29;20055;-79
2022/06/17 05:22:52;;;;;;;11.57;8.90;;;;;;;15.50;100.00;102412.00;4909882;29;20052;-79
2022/06/17 05:25:24;;;;;;;12.27;8.63;;;;;;;15.51;100.00;102408.44;4891824;29;20052;-79
2022/06/17 05:27:53;;;;;;;10.35;8.43;;;;;;;15.52;100.00;102398.69;4848671;29;20060;-79
2022/06/17 05:30:23;;;;;;;10.15;8.88;;;;;;;15.51;100.00;102394.28;4889192;29;20047;-80
2022/06/17 05:32:54;;;;;;;13.10;9.07;;;;;;;15.53;100.00;102396.06;4909413;29;20044;-79
2022/06/17 05:35:26;;;;;;;14.20;8.93;;;;;;;15.53;100.00;102401.38;4905266;29;20043;-78
2022/06/17 05:37:55;;;;;;;12.50;8.48;;;;;;;15.54;100.00;102391.66;4894592;29;20051;-78
2022/06/17 05:40:26;;;;;;;13.00;9.93;;;;;;;15.55;100.00;102396.97;4889982;29;20150;-78
2022/06/17 05:42:54;;;;;;;12.35;8.68;;;;;;;15.58;100.00;102398.75;4876783;29;20036;-78
2022/06/17 05:45:27;;;;;;;9.98;8.98;;;;;;;15.59;100.00;102398.78;4921079;29;20218;-78
2022/06/17 05:48:08;;;;;;;11.05;9.07;;;;;;;15.61;100.00;102396.09;4908556;29;20052;-79
2022/06/17 05:50:51;;;;;;;10.88;9.02;;;;;;;15.67;100.00;102400.56;4898361;29;20493;-78
2022/06/17 05:53:30;;;;;;;10.18;9.18;;;;;;;15.68;100.00;102403.25;4877944;29;20047;-78
2022/06/17 05:56:34;;;;;;;13.98;9.50;;;;;;;15.72;100.00;102399.72;4896238;29;20044;-80
2022/06/17 05:59:03;;;;;;;13.68;8.98;;;;;;;15.75;100.00;102388.28;4862322;29;20055;-81
2022/06/17 06:01:32;;;;;;;10.32;8.82;;;;;;;15.79;100.00;102384.75;4892092;29;20246;-80
2022/06/17 06:04:01;;;;;;;11.65;8.85;;;;;;;15.84;100.00;102385.69;4893903;29;20510;-80
2022/06/17 06:06:30;;;;;;;10.90;9.80;;;;;;;15.90;100.00;102382.19;4906426;29;20166;-80
2022/06/17 06:09:00;;;;;;;12.88;10.00;;;;;;;15.93;100.00;102379.50;4893959;29;20052;-79
2022/06/17 06:11:28;;;;;;;11.98;9.38;;;;;;;15.98;100.00;102385.75;4905349;29;20048;-78
2022/06/17 06:13:58;;;;;;;16.88;9.73;;;;;;;16.00;100.00;102381.34;4841651;29;20041;-78
2022/06/17 06:16:26;;;;;;;14.27;9.15;;;;;;;16.03;100.00;102378.69;4875385;29;20048;-78
2022/06/17 06:19:00;;;;;;;14.60;9.77;;;;;;;16.08;100.00;102378.72;4910435;29;20036;-78
2022/06/17 06:21:32;;;;;;;17.52;9.68;;;;;;;16.13;100.00;102383.16;4892043;29;20041;-78
2022/06/17 06:24:02;;;;;;;13.10;9.18;;;;;;;16.16;100.00;102380.53;4878822;29;20036;-80
2022/06/17 06:26:33;;;;;;;13.63;9.60;;;;;;;16.21;100.00;102387.63;4906043;29;20055;-78
2022/06/17 06:29:15;;;;;;;15.00;9.57;;;;;;;16.26;100.00;102383.22;4859345;29;20054;-79
2022/06/17 06:31:45;;;;;;;12.70;9.20;;;;;;;16.31;100.00;102376.13;4878576;29;20052;-79
2022/06/17 06:34:23;;;;;;;13.88;9.60;;;;;;;16.35;100.00;102381.50;4891299;29;20322;-78
2022/06/17 06:36:52;;;;;;;12.73;9.07;;;;;;;16.38;100.00;102380.59;4908477;29;20474;-78
2022/06/17 06:39:21;;;;;;;12.55;9.65;;;;;;;16.41;100.00;102377.97;4877550;29;20051;-78
2022/06/17 06:41:52;;;;;;;11.68;9.18;;;;;;;16.44;100.00;102382.41;4908400;29;20505;-78
2022/06/17 06:44:22;;;;;;;11.37;9.67;;;;;;;16.46;100.00;102388.59;4838991;29;20044;-80
2022/06/17 06:47:12;;;;;;;12.48;8.93;;;;;;;16.49;100.00;102392.16;4904941;29;20769;-78
2022/06/17 06:50:10;;;;;;;11.95;9.35;;;;;;;16.54;100.00;102390.41;4906570;29;20059;-78
2022/06/17 06:52:38;;;;;;;14.20;8.80;;;;;;;16.57;100.00;102389.53;4892309;29;20044;-78
2022/06/17 06:55:12;;;;;;;10.32;9.23;;;;;;;16.62;100.00;102392.22;4904496;29;20054;-78
2022/06/17 06:57:46;;;;;;;14.00;8.75;;;;;;;16.65;100.00;102384.22;4907840;29;20578;-78
2022/06/17 07:00:19;;;;;;;11.65;9.30;;;;;;;16.69;100.00;102373.59;4843511;29;20584;-78
2022/06/17 07:02:49;;;;;;;10.35;9.27;;;;;;;16.76;100.00;102378.03;4876332;29;20055;-78
2022/06/17 07:05:17;;;;;;;13.63;9.25;;;;;;;16.84;100.00;102382.53;4906156;29;20413;-78
2022/06/17 07:07:46;;;;;;;10.82;8.80;;;;;;;16.92;100.00;102381.66;4876392;29;20044;-78
2022/06/17 07:10:20;;;;;;;10.10;8.45;;;;;;;17.02;100.00;102382.56;4906056;29;20055;-78
2022/06/17 07:12:49;;;;;;;13.77;9.02;;;;;;;17.11;100.00;102379.91;4895769;29;20055;-78
2022/06/17 07:15:21;;;;;;;11.55;9.52;;;;;;;17.21;100.00;102379.91;4847514;29;20040;-78
2022/06/17 07:18:04;;;;;;;10.25;9.13;;;;;;;17.28;100.00;102373.69;4919166;29;20059;-80
2022/06/17 07:20:42;;;;;;;11.70;9.48;;;;;;;17.37;100.00;102368.31;4905550;29;20356;-78
2022/06/17 07:23:15;;;;;;;9.70;8.60;;;;;;;17.43;100.00;102367.44;4907999;29;20651;-78
2022/06/17 07:25:44;;;;;;;9.20;8.30;;;;;;;17.47;100.00;102369.22;4908430;29;20610;-80
2022/06/17 07:28:19;;;;;;;10.55;9.45;;;;;;;17.52;100.00;102379.00;4891723;29;20044;-80
2022/06/17 07:30:50;;;;;;;14.15;9.10;;;;;;;17.56;100.00;102373.66;4872051;29;20049;-78
2022/06/17 07:33:21;;;;;;;10.40;9.32;;;;;;;17.61;100.00;102379.88;4865411;29;20051;-78
2022/06/17 07:35:53;;;;;;;16.20;9.05;;;;;;;17.66;100.00;102370.09;4921335;29;20048;-80
2022/06/17 07:41:14;;;;;;;12.50;9.23;;;;;;;17.75;100.00;102375.41;4907748;29;20048;-78
2022/06/17 07:43:48;;;;;;;11.60;9.50;;;;;;;17.80;100.00;102373.59;4907581;29;20059;-78
2022/06/17 07:46:22;;;;;;;10.88;9.75;;;;;;;17.87;100.00;102369.19;4875683;29;20056;-80
2022/06/17 07:48:51;;;;;;;10.50;9.48;;;;;;;17.92;100.00;102365.59;4879426;29;20090;-80
2022/06/17 07:51:19;;;;;;;10.77;8.32;;;;;;;18.00;100.00;102364.69;4889029;29;20055;-78
2022/06/17 07:53:48;;;;;;;14.05;9.05;;;;;;;18.06;100.00;102362.00;4907336;29;20066;-79
2022/06/17 07:56:16;;;;;;;10.70;9.57;;;;;;;18.14;100.00;102357.50;4874283;29;20047;-78
2022/06/17 07:58:44;;;;;;;12.05;8.77;;;;;;;18.23;100.00;102364.59;4907161;29;20059;-80
2022/06/17 08:01:14;;;;;;;16.05;9.30;;;;;;;18.34;100.00;102365.44;4891152;29;20051;-80
2022/06/17 08:03:42;;;;;;;12.13;8.85;;;;;;;18.47;100.00;102374.28;4897114;29;20572;-79
2022/06/17 08:06:13;;;;;;;12.50;8.88;;;;;;;18.60;100.00;102367.06;4901883;29;20510;-80
2022/06/17 08:08:42;;;;;;;12.93;9.05;;;;;;;18.73;100.00;102349.19;4892295;29;20174;-80
2022/06/17 08:11:11;;;;;;;10.85;7.93;;;;;;;18.87;100.00;102352.69;4907186;29;20064;-81
2022/06/17 08:13:40;;;;;;;15.75;6.97;;;;;;;19.03;100.00;102356.97;4906374;29;20340;-80
2022/06/17 08:16:12;;;;;;;10.02;7.10;;;;;;;19.20;99.47;102358.63;4898777;29;20048;-80
2022/06/17 08:18:42;;;;;;;10.90;7.50;;;;;;;19.43;99.49;102347.72;4893883;29;20048;-80
2022/06/17 08:21:12;;;;;;;8.07;6.63;;;;;;;19.66;98.75;102345.72;4907069;29;20140;-80
2022/06/17 08:23:41;;;;;;;8.98;6.78;;;;;;;19.85;98.15;102338.41;4906987;29;20040;-80
2022/06/17 08:26:10;;;;;;;7.15;6.45;;;;;;;20.05;96.68;102339.94;4922151;29;20063;-80
2022/06/17 08:28:38;;;;;;;9.07;6.68;;;;;;;20.23;95.93;102333.47;4905654;29;20059;-80
2022/06/17 08:31:07;;;;;;;7.75;5.63;;;;;;;20.44;94.65;102340.31;4920286;29;20513;-78
2022/06/17 08:33:35;;;;;;;7.43;5.55;;;;;;;20.66;92.28;102329.31;4871502;29;20171;-79
2022/06/17 08:36:19;;;;;;;6.53;5.35;;;;;;;20.80;91.12;102332.66;4906422;29;20047;-80
2022/06/17 08:38:56;;;;;;;10.27;6.43;;;;;;;20.87;89.32;102330.75;4909210;29;20044;-80
2022/06/17 08:42:08;;;;;;;8.55;5.28;;;;;;;20.96;89.34;102328.84;4903489;29;20365;-80
2022/06/17 08:44:56;;;;;;;6.22;4.80;;;;;;;21.04;88.00;102320.66;4889626;29;20048;-80
2022/06/17 08:47:46;;;;;;;12.13;5.43;;;;;;;21.18;89.13;102315.06;4905439;29;20173;-80
2022/06/17 08:50:39;;;;;;;6.95;4.60;;;;;;;21.31;86.54;102313.91;4872285;29;20040;-79
2022/06/17 08:53:17;;;;;;;6.40;5.20;;;;;;;21.44;86.64;102309.25;4891037;29;20048;-79
2022/06/17 08:55:57;;;;;;;4.95;4.45;;;;;;;21.58;86.27;102312.53;4908427;29;20374;-78
2022/06/17 08:59:13;;;;;;;7.65;5.15;;;;;;;21.75;85.75;102316.69;4904595;29;20349;-79
2022/06/17 09:01:43;;;;;;;8.32;4.85;;;;;;;;;;4906340;29;20292;-78
2022/06/17 09:04:51;;;;;;;9.18;4.95;;;;;;;22.03;84.64;102310.75;4872954;29;20052;-79
2022/06/17 09:07:32;;;;;;;10.40;4.38;;;;;;;22.18;85.33;102313.97;4905714;29;20048;-79
2022/06/17 09:10:22;;;;;;;5.82;4.32;;;;;;;22.28;83.03;102320.03;4910996;29;20062;-79
2022/06/17 09:13:22;;;;;;;6.10;4.40;;;;;;;22.27;81.68;102325.44;4914968;29;20048;-79
2022/06/17 09:16:24;;;;;;;6.28;4.72;;;;;;;22.13;80.54;102328.41;4910936;29;20051;-80
2022/06/17 09:18:59;;;;;;;5.90;4.78;;;;;;;22.03;81.85;102327.72;4897403;29;20502;-80
2022/06/17 09:21:41;;;;;;;8.07;4.05;;;;;;;21.94;80.34;102327.91;4876163;29;20285;-80
2022/06/17 09:24:21;;;;;;;7.57;3.50;;;;;;;21.87;81.58;102310.16;4884630;29;20044;-81
2022/06/17 09:27:04;;;;;;;5.90;3.93;;;;;;;21.86;81.71;102308.41;4892203;29;20048;-80
2022/06/17 09:29:55;;;;;;;7.03;3.97;;;;;;;21.84;82.72;102300.41;4906838;29;20261;-80
2022/06/17 09:32:44;;;;;;;9.07;3.92;;;;;;;21.84;82.49;102297.72;4900286;29;20040;-81
2022/06/17 09:35:23;;;;;;;5.43;4.65;;;;;;;21.82;82.75;102296.00;4878106;29;20055;-81
2022/06/17 09:38:11;;;;;;;11.07;4.47;;;;;;;21.82;81.15;102296.00;4897074;29;20419;-80
2022/06/17 09:41:04;;;;;;;6.63;3.92;;;;;;;21.82;81.62;102288.81;4903090;29;20063;-80
2022/06/17 09:44:01;;;;;;;6.72;3.95;;;;;;;21.81;80.47;102292.41;4893142;29;20048;-80
2022/06/17 09:46:56;;;;;;;5.78;4.13;;;;;;;21.82;80.61;102296.00;4893107;29;20445;-80
2022/06/17 09:49:47;;;;;;;6.50;4.22;;;;;;;21.83;80.27;102295.94;4878828;29;20056;-80
2022/06/17 09:52:22;;;;;;;5.90;3.90;;;;;;;21.93;80.49;102296.66;4903316;29;20048;-80
2022/06/17 09:54:57;;;;;;;7.90;4.35;;;;;;;22.14;80.22;102288.13;4913691;29;20075;-80
2022/06/17 09:57:29;;;;;;;8.77;3.83;;;;;;;22.37;80.50;102290.31;4907901;29;20052;-80
2022/06/17 10:00:07;;;;;;;6.97;4.05;;;;;;;22.57;79.58;102286.25;4910013;29;20043;-80
2022/06/17 10:02:40;;;;;;;6.60;3.70;;;;;;;22.63;78.20;102283.44;4891522;29;20056;-80
2022/06/17 10:05:27;;;;;;;5.40;3.97;;;;;;;22.65;77.28;102278.91;4859535;29;20513;-81
2022/06/17 10:08:15;;;;;;;6.00;3.70;;;;;;;22.59;77.45;102279.06;4927393;29;20145;-81
2022/06/17 10:11:09;;;;;;;8.23;4.28;;;;;;;22.51;76.78;102273.88;4920161;29;20059;-80
2022/06/17 10:14:18;;;;;;;3.70;3.40;;;;;;;22.42;76.71;102276.78;4896980;29;20067;-80
2022/06/17 10:20:06;;;;;;;4.85;3.50;;;;;;;22.31;77.29;102300.31;4913028;29;20055;-80
2022/06/17 10:22:59;;;;;;;10.00;3.67;;;;;;;22.28;76.99;102308.44;4909075;29;20162;-80
2022/06/17 10:25:53;;;;;;;6.72;3.00;;;;;;;22.24;77.44;102314.75;4907857;29;20083;-79
2022/06/17 10:28:46;;;;;;;8.75;3.78;;;;;;;22.17;77.83;102308.63;4904970;29;20056;-80
2022/06/17 10:31:18;;;;;;;5.90;3.83;;;;;;;22.13;78.35;102296.19;4893952;29;20051;-81
2022/06/17 10:33:47;;;;;;;8.30;3.83;;;;;;;22.15;79.26;102289.00;4895378;29;20039;-79
2022/06/17 10:36:17;;;;;;;10.18;3.83;;;;;;;22.15;79.04;102297.91;4876960;29;20050;-80
2022/06/17 10:38:47;;;;;;;7.20;3.65;;;;;;;22.13;78.78;102290.81;4906369;29;20056;-80
2022/06/17 10:41:17;;;;;;;9.68;4.15;;;;;;;22.13;78.81;102296.19;4893409;29;20398;-80
2022/06/17 10:43:49;;;;;;;6.17;3.97;;;;;;;22.10;78.52;102294.47;4910790;29;20524;-80
2022/06/17 10:46:29;;;;;;;9.18;4.00;;;;;;;22.09;78.13;102300.75;4908192;29;20662;-80
2022/06/17 10:49:24;;;;;;;6.50;4.22;;;;;;;22.06;78.37;102303.53;4898204;29;20421;-80
2022/06/17 10:51:54;;;;;;;10.13;4.38;;;;;;;22.00;78.80;102300.94;4867686;29;20036;-80
2022/06/17 10:54:31;;;;;;;4.38;4.00;;;;;;;21.98;78.95;102302.78;4892894;29;20055;-81
2022/06/17 10:57:11;;;;;;;6.45;4.30;;;;;;;21.97;79.75;102292.97;4910929;29;20064;-80
2022/06/17 10:59:43;;;;;;;6.13;4.10;;;;;;;22.04;80.60;102300.00;4894042;29;20048;-80
2022/06/17 11:02:20;;;;;;;4.53;4.07;;;;;;;22.13;80.26;102291.69;4894202;29;20048;-80
2022/06/17 11:04:54;;;;;;;6.07;4.20;;;;;;;22.26;81.68;102286.97;4895456;29;20461;-80
2022/06/17 11:07:47;;;;;;;7.15;4.63;;;;;;;22.43;81.57;102289.28;4882042;29;20059;-80
2022/06/17 11:10:26;;;;;;;8.05;4.32;;;;;;;22.65;81.92;102286.09;4897051;29;20047;-80
2022/06/17 11:13:15;;;;;;;8.05;4.65;;;;;;;22.93;80.54;102284.47;4911396;29;20502;-80
2022/06/17 11:15:47;;;;;;;10.57;5.45;;;;;;;23.13;79.27;102275.88;4893235;29;20052;-80
2022/06/17 11:18:22;;;;;;;7.28;4.72;;;;;;;23.36;78.17;102277.06;4907538;29;20040;-80
2022/06/17 11:20:58;;;;;;;8.00;5.47;;;;;;;23.47;76.71;102274.97;4879027;29;20052;-80
2022/06/17 11:23:31;;;;;;;14.93;5.07;;;;;;;23.45;75.38;102270.56;4875304;29;20071;-80
2022/06/17 11:26:13;;;;;;;7.25;4.85;;;;;;;23.46;74.98;102272.31;4910425;29;20413;-80
2022/06/17 11:28:48;;;;;;;12.13;4.65;;;;;;;23.51;75.03;102270.38;4909811;29;20269;-80
2022/06/17 11:31:19;;;;;;;8.70;4.50;;;;;;;23.55;73.82;102278.34;4893402;29;20040;-80
2022/06/17 11:33:54;;;;;;;7.35;4.57;;;;;;;23.64;74.19;102274.47;4909532;29;20066;-80
2022/06/17 11:36:31;;;;;;;8.50;4.05;;;;;;;23.75;72.85;102268.78;4906099;29;20048;-80
2022/06/17 11:39:25;;;;;;;6.90;3.97;;;;;;;23.87;71.73;102259.50;4883280;29;20414;-81
2022/06/17 11:41:53;;;;;;;7.63;3.90;;;;;;;24.02;73.18;102258.16;4883885;29;20040;-80
2022/06/17 11:44:24;;;;;;;7.82;4.38;;;;;;;24.12;72.73;102259.63;4891628;29;20044;-80
2022/06/17 11:46:56;;;;;;;7.60;3.97;;;;;;;24.22;71.72;102252.16;4910024;29;20040;-80
2022/06/17 11:49:26;;;;;;;5.82;3.72;;;;;;;24.25;71.91;102252.94;4888143;29;20155;-80
2022/06/17 11:52:00;;;;;;;17.70;4.28;;;;;;;24.27;70.76;102244.78;4895012;29;20055;-80
2022/06/17 11:54:50;;;;;;;7.10;3.47;;;;;;;24.26;71.15;102232.25;4862422;29;20044;-79
2022/06/17 11:57:30;;;;;;;5.53;3.27;;;;;;;24.36;70.18;102219.38;4908472;29;20047;-80
2022/06/17 12:00:04;;;;;;;6.28;3.92;;;;;;;24.51;69.90;102221.53;4912838;29;20291;-80
2022/06/17 12:03:02;;;;;;;9.15;4.03;;;;;;;24.62;67.87;102226.63;4908421;29;20047;-80
2022/06/17 12:05:33;;;;;;;4.82;3.50;;;;;;;24.58;68.43;102211.50;4892339;29;20749;-80
2022/06/17 12:08:07;;;;;;;7.18;3.50;;;;;;;24.54;67.61;102220.59;4910183;29;20412;-80